createdAt,value
2023-01-07T00:01:38.865Z,44.13
2023-01-07T00:03:47.374Z,41.63
2023-01-07T00:05:54.364Z,41.63
2023-01-07T00:08:02.407Z,37.50
2023-01-07T00:10:10.100Z,33.83
2023-01-07T00:12:17.385Z,33.60
2023-01-07T00:14:24.423Z,29.80
2023-01-07T00:16:33.341Z,38.75
2023-01-07T00:18:42.768Z,40.22
2023-01-07T00:20:50.017Z,39.10
2023-01-07T00:22:56.878Z,40.50
2023-01-07T00:25:04.419Z,41.33
2023-01-07T00:27:11.443Z,46.30
2023-01-07T00:29:19.703Z,43.95
2023-01-07T00:31:28.468Z,45.28
2023-01-07T00:33:36.365Z,48.15
2023-01-07T00:35:46.160Z,46.00
2023-01-07T00:37:54.366Z,42.97
2023-01-07T00:40:01.623Z,41.78
2023-01-07T00:42:25.675Z,45.75
2023-01-07T00:44:32.969Z,46.92
2023-01-07T00:46:40.451Z,45.05
2023-01-07T00:48:48.313Z,44.97
2023-01-07T00:50:58.194Z,40.00
2023-01-07T00:53:05.583Z,44.88
2023-01-07T00:55:13.374Z,42.22
2023-01-07T00:57:20.557Z,36.75
2023-01-07T00:59:27.897Z,42.50
2023-01-07T01:01:35.020Z,43.65
2023-01-07T01:03:42.715Z,37.42
2023-01-07T01:05:50.667Z,37.10
2023-01-07T01:08:00.720Z,45.58
2023-01-07T01:10:08.723Z,39.40
2023-01-07T01:12:16.151Z,37.63
2023-01-07T01:14:23.180Z,40.72
2023-01-07T01:16:30.324Z,39.45
2023-01-07T01:18:37.288Z,39.42
2023-01-07T01:20:44.677Z,37.88
2023-01-07T01:22:51.909Z,38.03
2023-01-07T01:25:00.626Z,32.42
2023-01-07T01:27:07.958Z,35.72
2023-01-07T01:29:14.934Z,32.88
2023-01-07T01:31:22.248Z,33.53
2023-01-07T01:33:31.310Z,38.08
2023-01-07T01:35:42.780Z,37.90
2023-01-07T01:37:49.860Z,40.20
2023-01-07T01:39:58.982Z,32.38
2023-01-07T01:42:06.727Z,39.75
2023-01-07T01:44:39.972Z,34.08
2023-01-07T01:46:50.973Z,39.08
2023-01-07T01:49:02.894Z,39.13
2023-01-07T01:51:14.264Z,38.80
2023-01-07T01:53:25.567Z,33.75
2023-01-07T01:55:38.810Z,37.55
2023-01-07T01:57:47.075Z,33.28
2023-01-07T01:59:55.641Z,34.97
2023-01-07T02:02:02.962Z,34.55
2023-01-07T02:04:14.865Z,33.13
2023-01-07T02:06:26.157Z,29.83
2023-01-07T02:08:35.115Z,31.63
2023-01-07T02:10:47.110Z,27.67
2023-01-07T02:13:04.799Z,31.20
2023-01-07T02:15:15.452Z,32.13
2023-01-07T02:17:33.024Z,30.55
2023-01-07T02:20:22.141Z,34.17
2023-01-07T02:22:53.233Z,31.33
2023-01-07T02:25:22.619Z,48.22
2023-01-07T02:28:05.866Z,29.27
2023-01-07T02:30:41.660Z,36.13
2023-01-07T02:33:12.244Z,35.17
2023-01-07T02:35:31.516Z,29.73
2023-01-07T02:37:47.191Z,31.50
2023-01-07T02:40:04.355Z,28.48
2023-01-07T02:42:23.093Z,32.22
2023-01-07T02:44:41.862Z,66.53
2023-01-07T02:46:53.699Z,28.60
2023-01-07T02:49:07.539Z,45.25
2023-01-07T02:51:14.568Z,40.55
2023-01-07T02:53:23.804Z,34.13
2023-01-07T02:55:39.692Z,35.60
2023-01-07T02:58:11.504Z,43.50
2023-01-07T03:00:33.265Z,40.22
2023-01-07T03:03:11.641Z,45.33
2023-01-07T03:05:32.991Z,46.67
2023-01-07T03:07:53.947Z,31.45
2023-01-07T03:10:05.856Z,29.23
2023-01-07T03:12:19.473Z,33.05
2023-01-07T03:14:33.462Z,35.17
2023-01-07T03:16:44.871Z,34.83
2023-01-07T03:18:57.330Z,30.92
2023-01-07T03:21:09.341Z,41.95
2023-01-07T03:23:21.695Z,38.75
2023-01-07T03:25:31.966Z,29.65
2023-01-07T03:27:39.885Z,31.15
2023-01-07T03:29:47.080Z,31.95
2023-01-07T03:32:01.862Z,36.55
2023-01-07T03:34:12.349Z,34.33
2023-01-07T03:36:26.147Z,31.30
2023-01-07T03:38:36.696Z,35.67
2023-01-07T03:40:44.353Z,36.78
2023-01-07T03:42:50.965Z,31.98
2023-01-07T03:45:02.345Z,35.22
2023-01-07T03:47:13.111Z,33.30
2023-01-07T03:49:20.649Z,31.60
2023-01-07T03:51:29.415Z,34.03
2023-01-07T03:53:37.262Z,36.25
2023-01-07T03:55:44.395Z,34.72
2023-01-07T03:57:51.897Z,36.67
2023-01-07T03:59:59.263Z,33.03
2023-01-07T04:02:06.576Z,33.20
2023-01-07T04:04:13.740Z,30.20
2023-01-07T04:06:21.269Z,30.05
2023-01-07T04:08:29.941Z,34.30
2023-01-07T04:10:38.397Z,33.25
2023-01-07T04:12:45.693Z,35.70
2023-01-07T04:14:53.071Z,36.10
2023-01-07T04:17:00.763Z,42.92
2023-01-07T04:19:08.573Z,39.67
2023-01-07T04:21:15.739Z,30.30
2023-01-07T04:23:23.024Z,33.70
2023-01-07T04:25:34.456Z,34.47
2023-01-07T04:27:43.939Z,34.60
2023-01-07T04:29:51.281Z,32.05
2023-01-07T04:31:58.866Z,34.25
2023-01-07T04:34:06.202Z,29.95
2023-01-07T04:36:14.420Z,27.15
2023-01-07T04:38:21.996Z,29.08
2023-01-07T04:40:29.182Z,27.83
2023-01-07T04:42:39.535Z,29.80
2023-01-07T04:44:48.100Z,24.92
2023-01-07T04:46:55.486Z,28.25
2023-01-07T04:49:02.516Z,27.45
2023-01-07T04:51:10.360Z,23.75
2023-01-07T04:53:18.059Z,23.50
2023-01-07T04:55:27.131Z,24.77
2023-01-07T04:57:34.210Z,26.92
2023-01-07T04:59:43.134Z,25.85
2023-01-07T05:01:50.511Z,24.75
2023-01-07T05:03:57.907Z,24.58
2023-01-07T05:06:06.163Z,27.85
2023-01-07T05:08:13.706Z,25.48
2023-01-07T05:10:20.796Z,24.70
2023-01-07T05:12:28.176Z,22.48
2023-01-07T05:14:35.249Z,22.00
2023-01-07T05:16:44.265Z,24.42
2023-01-07T05:18:51.761Z,26.67
2023-01-07T05:20:58.891Z,25.40
2023-01-07T05:23:06.759Z,24.13
2023-01-07T05:25:14.744Z,23.70
2023-01-07T05:27:22.025Z,25.33
2023-01-07T05:29:29.000Z,24.23
2023-01-07T05:31:36.235Z,24.60
2023-01-07T05:33:46.502Z,25.25
2023-01-07T05:35:54.180Z,22.50
2023-01-07T05:38:01.468Z,24.27
2023-01-07T05:40:10.744Z,23.20
2023-01-07T05:42:17.830Z,21.58
2023-01-07T05:44:25.063Z,24.92
2023-01-07T05:46:32.086Z,23.30
2023-01-07T05:48:39.317Z,25.77
2023-01-07T05:50:48.085Z,22.58
2023-01-07T05:52:55.629Z,24.98
2023-01-07T05:55:02.613Z,22.75
2023-01-07T05:57:09.889Z,22.30
2023-01-07T05:59:17.375Z,24.92
2023-01-07T06:01:24.720Z,39.60
2023-01-07T06:03:31.730Z,21.63
2023-01-07T06:05:38.922Z,23.90
2023-01-07T06:07:47.588Z,24.73
2023-01-07T06:09:54.873Z,25.05
2023-01-07T06:12:02.000Z,26.42
2023-01-07T06:14:09.422Z,24.45
2023-01-07T06:16:17.929Z,23.65
2023-01-07T06:18:24.981Z,21.08
2023-01-07T06:20:35.589Z,21.00
2023-01-07T06:22:42.721Z,22.88
2023-01-07T06:24:51.696Z,19.52
2023-01-07T06:26:58.725Z,24.95
2023-01-07T06:29:06.058Z,21.52
2023-01-07T06:31:14.406Z,20.95
2023-01-07T06:33:24.516Z,19.95
2023-01-07T06:35:31.327Z,21.08
2023-01-07T06:37:38.494Z,22.33
2023-01-07T06:39:45.351Z,18.80
2023-01-07T06:41:54.837Z,21.48
2023-01-07T06:44:01.962Z,20.58
2023-01-07T06:46:09.615Z,18.42
2023-01-07T06:48:17.399Z,18.95
2023-01-07T06:50:24.699Z,19.35
2023-01-07T06:52:31.572Z,18.70
2023-01-07T06:54:38.793Z,17.33
2023-01-07T06:56:45.771Z,19.45
2023-01-07T06:58:54.591Z,19.02
2023-01-07T07:01:05.953Z,19.48
2023-01-07T07:03:13.232Z,21.38
2023-01-07T07:05:20.334Z,23.27
2023-01-07T07:07:27.615Z,19.58
2023-01-07T07:09:34.489Z,17.40
2023-01-07T07:11:41.627Z,18.27
2023-01-07T07:13:48.909Z,20.30
2023-01-07T07:15:57.766Z,16.90
2023-01-07T07:18:05.148Z,16.88
2023-01-07T07:20:13.329Z,15.73
2023-01-07T07:22:21.738Z,16.88
2023-01-07T07:24:28.962Z,17.33
2023-01-07T07:26:35.833Z,18.95
2023-01-07T07:28:43.890Z,17.60
2023-01-07T07:30:50.863Z,15.85
2023-01-07T07:32:59.887Z,17.58
2023-01-07T07:35:06.966Z,15.68
2023-01-07T07:37:14.619Z,14.85
2023-01-07T07:39:22.240Z,15.70
2023-01-07T07:41:29.586Z,19.30
2023-01-07T07:43:39.640Z,15.68
2023-01-07T07:45:47.535Z,18.55
2023-01-07T07:47:54.463Z,18.98
2023-01-07T07:50:03.358Z,15.25
2023-01-07T07:52:10.152Z,20.13
2023-01-07T07:54:17.488Z,19.50
2023-01-07T07:56:24.567Z,22.15
2023-01-07T07:58:31.801Z,18.58
2023-01-07T08:00:39.037Z,15.50
2023-01-07T08:02:46.431Z,19.08
2023-01-07T08:04:53.236Z,15.82
2023-01-07T08:07:02.259Z,18.20
2023-01-07T08:09:09.193Z,22.60
2023-01-07T08:11:16.632Z,20.75
2023-01-07T08:13:23.608Z,19.48
2023-01-07T08:15:30.942Z,16.52
2023-01-07T08:17:38.379Z,17.70
2023-01-07T08:19:45.564Z,20.30
2023-01-07T08:21:53.771Z,16.70
2023-01-07T08:24:02.692Z,18.33
2023-01-07T08:26:10.337Z,18.15
2023-01-07T08:28:17.364Z,19.67
2023-01-07T08:30:24.807Z,19.67
2023-01-07T08:32:31.828Z,19.77
2023-01-07T08:34:39.059Z,18.58
2023-01-07T08:36:46.034Z,18.77
2023-01-07T08:38:55.215Z,15.60
2023-01-07T08:41:03.984Z,16.35
2023-01-07T08:43:15.414Z,21.63
2023-01-07T08:45:22.443Z,20.17
2023-01-07T08:47:30.084Z,19.88
2023-01-07T08:49:36.960Z,16.60
2023-01-07T08:51:44.192Z,17.85
2023-01-07T08:53:53.124Z,17.77
2023-01-07T08:56:00.398Z,20.17
2023-01-07T08:58:09.115Z,17.77
2023-01-07T09:00:17.580Z,18.05
2023-01-07T09:02:24.616Z,17.95
2023-01-07T09:04:32.810Z,19.42
2023-01-07T09:06:39.785Z,22.02
2023-01-07T09:08:47.276Z,19.08
2023-01-07T09:10:54.421Z,17.45
2023-01-07T09:13:02.099Z,16.73
2023-01-07T09:15:12.081Z,16.63
2023-01-07T09:17:19.186Z,15.15
2023-01-07T09:19:26.166Z,19.33
2023-01-07T09:21:33.489Z,19.70
2023-01-07T09:23:41.443Z,18.98
2023-01-07T09:25:48.774Z,16.33
2023-01-07T09:27:56.272Z,16.85
2023-01-07T09:30:03.548Z,18.52
2023-01-07T09:32:12.212Z,18.27
2023-01-07T09:34:19.348Z,17.00
2023-01-07T09:36:26.474Z,17.55
2023-01-07T09:38:34.065Z,17.92
2023-01-07T09:40:42.859Z,17.52
2023-01-07T09:42:57.875Z,20.90
2023-01-07T09:45:17.073Z,19.25
2023-01-07T09:47:30.237Z,19.52
2023-01-07T09:49:37.369Z,18.73
2023-01-07T09:51:48.029Z,19.85
2023-01-07T09:53:57.105Z,18.98
2023-01-07T09:56:12.455Z,26.13
2023-01-07T09:58:22.424Z,23.67
2023-01-07T10:00:30.444Z,29.98
2023-01-07T10:02:48.338Z,27.85
2023-01-07T10:05:01.173Z,34.63
2023-01-07T10:07:24.236Z,35.42
2023-01-07T10:09:41.905Z,35.22
2023-01-07T10:11:58.763Z,31.48
2023-01-07T10:14:24.481Z,25.95
2023-01-07T10:16:38.264Z,24.08
2023-01-07T10:18:55.177Z,21.10
2023-01-07T10:21:12.594Z,22.35
2023-01-07T10:23:25.106Z,20.42
2023-01-07T10:25:36.059Z,27.05
2023-01-07T10:27:47.353Z,21.23
2023-01-07T10:29:58.579Z,22.17
2023-01-07T10:32:13.387Z,22.53
2023-01-07T10:34:28.811Z,22.90
2023-01-07T10:36:39.427Z,28.50
2023-01-07T10:38:50.755Z,26.58
2023-01-07T10:41:00.596Z,23.30
2023-01-07T10:43:17.541Z,28.33
2023-01-07T10:45:49.451Z,26.50
2023-01-07T10:50:33.332Z,30.90
2023-01-07T10:52:49.296Z,27.50
2023-01-07T10:55:16.459Z,28.35
2023-01-07T10:57:25.847Z,27.95
2023-01-07T10:59:33.594Z,27.55
2023-01-07T11:01:42.944Z,28.55
2023-01-07T11:03:53.404Z,27.55
2023-01-07T11:06:07.528Z,29.80
2023-01-07T11:08:19.835Z,30.00
2023-01-07T11:10:29.057Z,29.88
2023-01-07T11:12:41.001Z,38.03
2023-01-07T11:14:48.956Z,32.90
2023-01-07T11:17:00.506Z,41.03
2023-01-07T11:19:10.174Z,34.85
2023-01-07T11:21:43.208Z,37.72
2023-01-07T11:23:51.470Z,34.63
2023-01-07T11:26:08.178Z,33.95
2023-01-07T11:28:22.322Z,40.30
2023-01-07T11:30:31.978Z,39.65
2023-01-07T11:32:42.211Z,36.88
2023-01-07T11:34:57.621Z,39.38
2023-01-07T11:37:07.640Z,41.90
2023-01-07T11:39:21.055Z,42.42
2023-01-07T11:41:29.830Z,36.70
2023-01-07T11:43:38.038Z,31.20
2023-01-07T11:46:19.185Z,38.50
2023-01-07T11:48:29.063Z,39.90
2023-01-07T11:50:40.144Z,45.10
2023-01-07T11:52:59.328Z,44.10
2023-01-07T11:55:06.476Z,43.05
2023-01-07T11:57:22.668Z,38.70
2023-01-07T11:59:33.368Z,37.47
2023-01-07T12:01:46.748Z,39.05
2023-01-07T12:04:23.497Z,35.55
2023-01-07T12:06:33.257Z,33.95
2023-01-07T12:08:43.838Z,34.70
2023-01-07T12:10:58.760Z,36.67
2023-01-07T12:13:09.004Z,38.42
2023-01-07T12:15:24.897Z,35.72
2023-01-07T12:17:35.364Z,36.80
2023-01-07T12:20:03.991Z,33.92
2023-01-07T12:22:24.375Z,35.10
2023-01-07T12:25:15.128Z,38.88
2023-01-07T12:27:33.875Z,34.42
2023-01-07T12:29:51.045Z,35.47
2023-01-07T12:32:12.256Z,33.10
2023-01-07T12:34:30.599Z,34.45
2023-01-07T12:36:44.655Z,35.70
2023-01-07T12:38:53.941Z,33.47
2023-01-07T12:41:07.235Z,32.83
2023-01-07T12:43:21.084Z,35.17
2023-01-07T12:45:32.267Z,34.00
2023-01-07T12:47:43.194Z,31.02
2023-01-07T12:49:57.741Z,36.20
2023-01-07T12:52:09.784Z,39.42
2023-01-07T12:54:25.114Z,37.70
2023-01-07T12:56:39.100Z,32.42
2023-01-07T12:58:50.378Z,38.70
2023-01-07T13:01:03.457Z,37.53
2023-01-07T13:03:21.685Z,38.17
2023-01-07T13:05:33.984Z,39.17
2023-01-07T13:09:56.595Z,33.90
2023-01-07T13:12:41.577Z,34.40
2023-01-07T13:14:53.448Z,37.30
2023-01-07T13:17:07.771Z,35.00
2023-01-07T13:19:15.351Z,37.72
2023-01-07T13:21:23.561Z,41.88
2023-01-07T13:23:44.395Z,34.20
2023-01-07T13:26:10.536Z,34.00
2023-01-07T13:28:47.307Z,35.78
2023-01-07T13:31:08.165Z,35.78
2023-01-07T13:33:25.843Z,37.40
2023-01-07T13:35:51.888Z,35.17
2023-01-07T13:38:15.317Z,34.30
2023-01-07T13:40:54.036Z,36.60
2023-01-07T13:43:12.700Z,36.72
2023-01-07T13:45:22.891Z,33.22
2023-01-07T13:47:39.757Z,36.30
2023-01-07T13:49:56.656Z,38.22
2023-01-07T13:52:18.582Z,35.75
2023-01-07T13:54:59.618Z,32.53
2023-01-07T13:57:48.060Z,33.38
2023-01-07T13:59:56.883Z,37.67
2023-01-07T14:02:26.377Z,34.25
2023-01-07T14:04:50.227Z,31.05
2023-01-07T14:06:57.784Z,36.97
2023-01-07T14:09:31.046Z,34.95
2023-01-07T14:11:50.922Z,35.15
2023-01-07T14:14:03.892Z,32.50
2023-01-07T14:16:18.816Z,37.40
2023-01-07T14:19:07.154Z,35.20
2023-01-07T14:21:34.844Z,36.42
2023-01-07T14:23:47.417Z,34.00
2023-01-07T14:26:11.391Z,35.08
2023-01-07T14:28:37.666Z,40.88
2023-01-07T14:30:48.613Z,36.70
2023-01-07T14:33:04.219Z,38.70
2023-01-07T14:35:30.090Z,38.22
2023-01-07T14:37:39.407Z,41.70
2023-01-07T14:39:48.047Z,42.40
2023-01-07T14:42:35.691Z,37.80
2023-01-07T14:44:42.818Z,35.55
2023-01-07T14:46:56.320Z,36.40
2023-01-07T14:49:35.000Z,37.97
2023-01-07T14:51:56.180Z,37.63
2023-01-07T14:54:24.335Z,34.58
2023-01-07T14:56:51.686Z,37.50
2023-01-07T14:59:35.180Z,36.42
2023-01-07T15:02:14.059Z,37.38
2023-01-07T15:04:56.039Z,32.55
2023-01-07T15:07:06.293Z,40.60
2023-01-07T15:09:32.625Z,32.90
2023-01-07T15:11:57.967Z,32.20
2023-01-07T15:14:26.260Z,38.15
2023-01-07T15:16:36.938Z,32.47
2023-01-07T15:18:51.682Z,35.22
2023-01-07T15:21:12.583Z,32.55
2023-01-07T15:23:28.014Z,34.83
2023-01-07T15:25:48.192Z,33.47
2023-01-07T15:28:02.478Z,33.08
2023-01-07T15:30:22.680Z,33.15
2023-01-07T15:32:40.151Z,37.28
2023-01-07T15:34:48.412Z,28.73
2023-01-07T15:36:56.259Z,34.42
2023-01-07T15:41:35.463Z,29.65
2023-01-07T15:43:42.735Z,32.42
2023-01-07T15:45:50.868Z,35.60
2023-01-07T15:48:09.658Z,31.48
2023-01-07T15:50:28.345Z,30.92
2023-01-07T15:52:35.783Z,29.73
2023-01-07T15:54:42.915Z,31.92
2023-01-07T15:56:54.869Z,32.00
2023-01-07T15:59:01.990Z,34.15
2023-01-07T16:01:11.307Z,32.33
2023-01-07T16:03:20.396Z,29.25
2023-01-07T16:05:28.860Z,35.35
2023-01-07T16:07:37.715Z,27.88
2023-01-07T16:09:49.056Z,28.85
2023-01-07T16:11:58.848Z,28.83
2023-01-07T16:14:07.772Z,27.30
2023-01-07T16:16:19.813Z,33.67
2023-01-07T16:18:27.156Z,30.48
2023-01-07T16:20:36.752Z,31.83
2023-01-07T16:22:45.930Z,30.88
2023-01-07T16:24:54.905Z,28.38
2023-01-07T16:27:06.335Z,28.67
2023-01-07T16:29:18.625Z,29.57
2023-01-07T16:31:28.718Z,31.23
2023-01-07T16:33:38.611Z,31.00
2023-01-07T16:35:46.938Z,29.88
2023-01-07T16:37:54.878Z,26.70
2023-01-07T16:40:02.261Z,31.10
2023-01-07T16:42:24.838Z,28.45
2023-01-07T16:45:01.887Z,27.80
2023-01-07T16:47:16.803Z,27.50
2023-01-07T16:49:29.468Z,27.40
2023-01-07T16:51:42.962Z,29.45
2023-01-07T16:53:49.812Z,30.55
2023-01-07T16:55:58.687Z,27.25
2023-01-07T16:58:07.457Z,25.80
2023-01-07T17:00:21.865Z,26.52
2023-01-07T17:02:34.426Z,28.15
2023-01-07T17:04:41.735Z,26.23
2023-01-07T17:06:49.034Z,26.90
2023-01-07T17:08:58.043Z,26.90
2023-01-07T17:11:10.309Z,27.10
2023-01-07T17:13:40.823Z,26.23
2023-01-07T17:15:48.123Z,27.77
2023-01-07T17:17:55.310Z,28.38
2023-01-07T17:20:20.364Z,30.15
2023-01-07T17:22:34.997Z,28.80
2023-01-07T17:24:52.841Z,29.40
2023-01-07T17:27:02.400Z,25.80
2023-01-07T17:29:16.052Z,28.50
2023-01-07T17:31:23.860Z,31.45
2023-01-07T17:33:31.454Z,31.27
2023-01-07T17:35:46.723Z,27.67
2023-01-07T17:37:54.746Z,28.92
2023-01-07T17:40:01.651Z,29.83
2023-01-07T17:42:30.847Z,32.55
2023-01-07T17:44:39.766Z,30.10
2023-01-07T17:46:46.899Z,33.15
2023-01-07T17:48:53.873Z,30.45
2023-01-07T17:51:02.339Z,34.05
2023-01-07T17:53:09.311Z,28.63
2023-01-07T17:55:21.870Z,31.45
2023-01-07T17:57:28.882Z,30.70
2023-01-07T17:59:36.164Z,27.58
2023-01-07T18:01:45.007Z,31.45
2023-01-07T18:03:52.118Z,30.38
2023-01-07T18:05:59.451Z,30.65
2023-01-07T18:08:06.635Z,30.40
2023-01-07T18:10:16.430Z,28.33
2023-01-07T18:12:35.909Z,28.33
2023-01-07T18:14:42.940Z,28.20
2023-01-07T18:16:51.961Z,27.13
2023-01-07T18:18:59.308Z,31.90
2023-01-07T18:21:06.639Z,29.98
2023-01-07T18:23:15.208Z,31.38
2023-01-07T18:25:24.049Z,28.55
2023-01-07T18:27:31.374Z,30.52
2023-01-07T18:29:38.585Z,30.13
2023-01-07T18:31:46.784Z,30.20
2023-01-07T18:33:55.663Z,31.05
2023-01-07T18:36:02.614Z,29.67
2023-01-07T18:38:14.206Z,31.48
2023-01-07T18:40:22.057Z,29.13
2023-01-07T18:42:29.085Z,33.70
2023-01-07T18:44:35.907Z,28.50
2023-01-07T18:46:43.773Z,31.40
2023-01-07T18:48:50.735Z,29.00
2023-01-07T18:50:59.657Z,34.25
2023-01-07T18:53:06.597Z,32.45
2023-01-07T18:55:14.279Z,31.35
2023-01-07T18:57:21.055Z,30.17
2023-01-07T18:59:28.378Z,33.75
2023-01-07T19:01:35.412Z,31.33
2023-01-07T19:03:42.653Z,30.83
2023-01-07T19:05:49.537Z,33.90
2023-01-07T19:07:58.504Z,30.23
2023-01-07T19:10:05.427Z,28.67
2023-01-07T19:12:13.955Z,29.48
2023-01-07T19:14:20.819Z,31.25
2023-01-07T19:16:28.073Z,35.25
2023-01-07T19:18:34.932Z,32.10
2023-01-07T19:20:42.465Z,33.22
2023-01-07T19:22:49.444Z,29.63
2023-01-07T19:24:58.675Z,33.70
2023-01-07T19:27:05.854Z,32.78
2023-01-07T19:29:14.073Z,29.40
2023-01-07T19:31:21.065Z,30.15
2023-01-07T19:33:28.421Z,31.02
2023-01-07T19:35:35.297Z,34.40
2023-01-07T19:37:42.892Z,31.13
2023-01-07T19:39:49.983Z,29.02
2023-01-07T19:41:59.043Z,32.08
2023-01-07T19:44:06.079Z,31.42
2023-01-07T19:46:15.451Z,34.38
2023-01-07T19:48:22.433Z,30.73
2023-01-07T19:50:30.175Z,30.08
2023-01-07T19:52:37.376Z,37.10
2023-01-07T19:54:44.537Z,32.03
2023-01-07T19:56:52.029Z,34.08
2023-01-07T19:59:01.362Z,30.88
2023-01-07T20:01:09.189Z,30.88
2023-01-07T20:03:16.441Z,29.67
2023-01-07T20:05:24.645Z,32.58
2023-01-07T20:07:35.019Z,33.75
2023-01-07T20:09:42.897Z,32.00
2023-01-07T20:11:49.979Z,30.10
2023-01-07T20:13:57.245Z,33.67
2023-01-07T20:16:09.753Z,32.72
2023-01-07T20:18:18.475Z,30.23
2023-01-07T20:20:25.480Z,30.92
2023-01-07T20:22:34.094Z,36.45
2023-01-07T20:24:41.157Z,33.33
2023-01-07T20:26:48.798Z,33.45
2023-01-07T20:28:55.929Z,33.17
2023-01-07T20:31:03.525Z,30.05
2023-01-07T20:33:12.186Z,32.08
2023-01-07T20:35:19.881Z,31.65
2023-01-07T20:37:29.161Z,34.53
2023-01-07T20:39:36.450Z,38.20
2023-01-07T20:41:44.194Z,31.58
2023-01-07T20:43:55.394Z,30.10
2023-01-07T20:46:03.371Z,32.83
2023-01-07T20:48:12.799Z,32.83
2023-01-07T20:50:19.983Z,31.98
2023-01-07T20:52:27.557Z,29.88
2023-01-07T20:54:34.650Z,34.88
2023-01-07T20:56:41.989Z,31.85
2023-01-07T20:58:49.533Z,34.65
2023-01-07T21:00:56.796Z,32.67
2023-01-07T21:03:03.937Z,34.70
2023-01-07T21:05:13.377Z,31.50
2023-01-07T21:07:20.405Z,33.33
2023-01-07T21:09:27.896Z,31.63
2023-01-07T21:11:34.920Z,33.00
2023-01-07T21:13:42.306Z,31.33
2023-01-07T21:15:49.436Z,31.00
2023-01-07T21:17:57.933Z,32.35
2023-01-07T21:20:04.928Z,34.85
2023-01-07T21:22:14.034Z,32.58
2023-01-07T21:24:21.138Z,33.30
2023-01-07T21:26:28.469Z,33.25
2023-01-07T21:28:35.539Z,33.72
2023-01-07T21:30:42.839Z,35.67
2023-01-07T21:32:49.809Z,41.92
2023-01-07T21:34:57.096Z,32.67
2023-01-07T21:37:04.025Z,32.60
2023-01-07T21:39:15.967Z,36.92
2023-01-07T21:41:23.147Z,37.60
2023-01-07T21:43:30.375Z,35.30
2023-01-07T21:45:37.442Z,37.28
2023-01-07T21:47:44.839Z,36.33
2023-01-07T21:49:54.175Z,38.58
2023-01-07T21:52:01.663Z,34.45
2023-01-07T21:54:09.305Z,34.17
2023-01-07T21:56:19.290Z,36.97
2023-01-07T21:58:26.123Z,33.60
2023-01-07T22:00:33.461Z,34.15
2023-01-07T22:02:40.488Z,35.45
2023-01-07T22:04:47.726Z,36.65
2023-01-07T22:06:54.710Z,30.80
2023-01-07T22:09:03.123Z,36.53
2023-01-07T22:11:10.394Z,35.28
2023-01-07T22:13:19.315Z,36.35
2023-01-07T22:15:26.752Z,32.88
2023-01-07T22:17:34.035Z,30.70
2023-01-07T22:19:41.120Z,33.25
2023-01-07T22:21:48.195Z,35.42
2023-01-07T22:23:55.454Z,38.05
2023-01-07T22:26:06.963Z,34.45
2023-01-07T22:30:24.349Z,33.67
2023-01-07T22:32:31.546Z,30.63
2023-01-07T22:34:38.826Z,31.80
2023-01-07T22:36:49.935Z,36.17
2023-01-07T22:38:59.171Z,35.75
2023-01-07T22:41:06.857Z,36.20
2023-01-07T22:43:17.777Z,33.85
2023-01-07T22:45:35.332Z,37.50
2023-01-07T22:47:45.196Z,35.58
2023-01-07T22:49:54.014Z,33.30
2023-01-07T22:52:01.665Z,35.47
2023-01-07T22:54:09.103Z,31.88
2023-01-07T22:56:17.098Z,35.83
2023-01-07T22:58:24.077Z,34.58
2023-01-07T23:00:50.459Z,37.95
2023-01-07T23:02:57.502Z,37.80
2023-01-07T23:05:04.872Z,32.92
2023-01-07T23:07:11.900Z,35.63
2023-01-07T23:09:19.247Z,39.78
2023-01-07T23:11:42.747Z,37.63
2023-01-07T23:13:50.184Z,36.13
2023-01-07T23:15:59.181Z,36.25
2023-01-07T23:18:07.365Z,33.97
2023-01-07T23:20:14.831Z,38.15
2023-01-07T23:22:22.075Z,37.58
2023-01-07T23:24:29.064Z,34.03
2023-01-07T23:26:36.349Z,36.22
2023-01-07T23:28:43.332Z,36.95
2023-01-07T23:30:51.124Z,35.05
2023-01-07T23:33:00.091Z,37.70
2023-01-07T23:35:07.789Z,38.17
2023-01-07T23:37:14.866Z,35.75
2023-01-07T23:39:22.047Z,38.00
2023-01-07T23:41:28.926Z,35.90
2023-01-07T23:43:36.495Z,43.63
2023-01-07T23:45:43.445Z,40.17
2023-01-07T23:47:50.514Z,40.58
2023-01-07T23:49:59.038Z,39.72
2023-01-07T23:52:06.263Z,35.45
2023-01-07T23:54:13.649Z,41.67
2023-01-07T23:56:22.940Z,51.08
2023-01-07T23:58:29.999Z,44.72
